ADDS METAR Data INFO
IDs: Format: Raw Decoded Include TAF

Data at: 1748 UTC 21 Oct 2017

KISN 211652Z AUTO 28019G34KT 10SM OVC022 08/02 A2959 RMK AO2 PK WND 28034/1645 SLPNO T00830022 TSNO
KISN 211552Z AUTO 28016G23KT 10SM OVC022 08/03 A2957 RMK AO2 PK WND 26028/1513 SLPNO T00780033 TSNO
KISN 211526Z AUTO 27019G27KT 10SM OVC024 08/03 A2957 RMK AO2 PK WND 26028/1513 T00780033
KISN 211453Z 23015KT 10SM BKN025 08/03
KISN 211353Z 23013KT 10SM BKN025 08/03 A2951
KISN 211352Z AUTO A2953 RMK AO2 SLPNO PWINO FZRANO $
KISN 211325Z 23013KT 10SM BKN025 07/03 A2951
KISN 211253Z 22014KT 10SM SKC 08/03 A2950
KISN 211252Z AUTO A2950 RMK AO2 SLPNO PWINO FZRANO $
KISN 211153Z 20015KT 10SM SKC 08/03 A2948
KISN 211152Z AUTO A2948 RMK AO2 SLPNO 51029 PWINO FZRANO $
KISN 211053Z 20015KT 10SM CLR 08/03 A2946
KISN 211052Z AUTO A2946 RMK AO2 SLPNO PWINO FZRANO $
KISN 210953Z 20011KT 10SM SKC 08/03 A2944
KISN 210952Z AUTO A2944 RMK AO2 PRESRR SLPNO PWINO FZRANO $
KISN 210852Z AUTO A2939 RMK AO2 SLPNO 53032 PWINO FZRANO $
KISN 210752Z AUTO A2935 RMK AO2 SLPNO PWINO FZRANO $
KISN 210652Z AUTO A2929 RMK AO2 SLPNO PWINO FZRANO $
KISN 210553Z 28023G31KT 8SM CLR 14/00 A2929
KISN 210552Z AUTO A2929 RMK AO2 SLPNO 53042 PWINO FZRANO $
KISN 210453Z 21018KT 10SM CLR 16/00 A2924
KISN 210452Z AUTO A2925 RMK AO2 SLPNO PWINO FZRANO $
KISN 210353Z 25003KT 10SM CLR 17/05 A2919
KISN 210352Z AUTO A2919 RMK AO2 SLPNO PWINO FZRANO $
KISN 210253Z 00000KT 10SM CLR 17/05 A2916
KISN 210252Z AUTO A2916 RMK AO2 SLPNO 57006 PWINO FZRANO $
KISN 210153Z 33002KT 10SM CLR 15/04 A2916
KISN 210152Z AUTO A2916 RMK AO2 SLPNO PWINO FZRANO $
KISN 210053Z 33002KT 10SM CLR 16/03 A2918
KISN 210052Z AUTO A2918 RMK AO2 SLPNO PWINO FZRANO $
KISN 202353Z 06002KT 10SM SKC 21/04 A2918
KISN 202352Z AUTO A2918 RMK AO2 SLPNO 57009 PWINO FZRANO $
KISN 202252Z AUTO A2919 RMK AO2 SLPNO PWINO FZRANO $
KISN 202152Z AUTO A2920 RMK AO2 SLPNO PWINO FZRANO $
KISN 202052Z AUTO A2921 RMK AO2 SLPNO 56025 PWINO FZRANO
KISN 201952Z AUTO A2923 RMK AO2 SLPNO PWINO FZRANO $
KISN 201852Z AUTO VRB05KT 10SM CLR 21/03 A2926 RMK AO2 SLP903 T02060028
KISN 201752Z AUTO 19006KT 10SM CLR 17/02 A2929 RMK AO2 SLP920 T01720022 10172 21006 56025
KISN 201652Z AUTO 19006KT 10SM CLR 14/01 A2932 RMK AO2 SLP931 T01440011
KISN 201552Z AUTO 19004KT 10SM CLR 10/01 A2934 RMK AO2 SLP941 T01000011
KISN 201452Z AUTO 22004KT 10SM CLR 07/02 A2937 RMK AO2 SLP956 T00670017 56015
KISN 201352Z AUTO 00000KT 7SM CLR 02/M01 A2938 RMK AO2 SLP963 T00171011
KISN 201252Z AUTO 03004KT 10SM CLR 01/M02 A2940 RMK AO2 SLP965 T00061017
KISN 201152Z AUTO 00000KT 5SM BR CLR 01/M01 A2942 RMK AO2 SLP966 T00111011 10094 20006 56017
KISN 201052Z AUTO 00000KT 10SM CLR 02/M01 A2943 RMK AO2 SLP969 T00221011
KISN 200952Z AUTO 03005KT 10SM CLR 06/M01 A2944 RMK AO2 SLP967 T00611006
KISN 200852Z AUTO 34004KT 10SM CLR 04/M01 A2947 RMK AO2 SLP980 T00441006 58023
KISN 200752Z AUTO 35003KT 10SM CLR 06/01 A2950 RMK AO2 SLP989 T00560006
KISN 200652Z AUTO 00000KT 10SM CLR 09/01 A2952 RMK AO2 SLP995 T00890011
KISN 200552Z AUTO 00000KT 10SM CLR 08/02 A2955 RMK AO2 SLP006 T00780017 10206 20056 402610011 58016